createdAt,value
2023-02-04T00:00:19.882Z,99.90
2023-02-04T00:02:46.718Z,99.90
2023-02-04T00:05:13.742Z,99.90
2023-02-04T00:07:41.522Z,99.90
2023-02-04T00:10:09.791Z,99.90
2023-02-04T00:12:37.048Z,99.90
2023-02-04T00:15:04.463Z,99.90
2023-02-04T00:17:31.465Z,99.90
2023-02-04T00:19:58.200Z,99.90
2023-02-04T00:22:26.496Z,99.90
2023-02-04T00:24:53.196Z,99.90
2023-02-04T00:27:19.939Z,99.90
2023-02-04T00:29:46.634Z,99.90
2023-02-04T00:32:13.495Z,99.90
2023-02-04T00:34:41.030Z,99.90
2023-02-04T00:37:07.817Z,99.90
2023-02-04T00:39:34.526Z,99.90
2023-02-04T00:42:01.448Z,99.90
2023-02-04T00:44:28.245Z,99.90
2023-02-04T00:46:55.228Z,99.90
2023-02-04T00:49:21.914Z,99.90
2023-02-04T00:51:49.066Z,99.90
2023-02-04T00:54:15.942Z,99.90
2023-02-04T00:56:43.958Z,99.90
2023-02-04T00:59:10.899Z,99.90
2023-02-04T01:01:37.774Z,99.90
2023-02-04T01:04:04.894Z,99.90
2023-02-04T01:06:32.182Z,99.90
2023-02-04T01:08:58.972Z,99.90
2023-02-04T01:11:26.143Z,99.90
2023-02-04T01:13:52.888Z,99.90
2023-02-04T01:16:19.673Z,99.90
2023-02-04T01:18:46.568Z,99.90
2023-02-04T01:21:13.371Z,99.90
2023-02-04T01:23:40.184Z,99.90
2023-02-04T01:26:07.357Z,99.90
2023-02-04T01:28:34.131Z,99.90
2023-02-04T01:31:01.085Z,99.90
2023-02-04T01:33:28.012Z,99.90
2023-02-04T01:35:54.798Z,99.90
2023-02-04T01:38:21.519Z,99.90
2023-02-04T01:40:48.397Z,99.90
2023-02-04T01:43:17.715Z,99.90
2023-02-04T01:45:46.364Z,99.90
2023-02-04T01:48:20.061Z,99.90
2023-02-04T01:50:50.491Z,99.90
2023-02-04T01:53:26.176Z,99.90
2023-02-04T01:55:53.050Z,99.90
2023-02-04T01:58:20.034Z,99.90
2023-02-04T02:00:46.958Z,99.90
2023-02-04T02:03:13.970Z,99.90
2023-02-04T02:05:48.280Z,99.90
2023-02-04T02:08:16.827Z,99.90
2023-02-04T02:10:47.812Z,99.90
2023-02-04T02:13:19.285Z,99.90
2023-02-04T02:15:47.838Z,99.90
2023-02-04T02:18:15.523Z,99.90
2023-02-04T02:20:44.182Z,99.90
2023-02-04T02:23:35.586Z,99.90
2023-02-04T02:26:02.381Z,99.90
2023-02-04T02:28:29.144Z,99.90
2023-02-04T02:30:55.953Z,99.90
2023-02-04T02:33:22.903Z,99.90
2023-02-04T02:35:49.840Z,99.90
2023-02-04T02:38:18.743Z,99.90
2023-02-04T02:40:46.784Z,99.90
2023-02-04T02:43:21.297Z,99.90
2023-02-04T02:45:49.271Z,99.90
2023-02-04T02:48:17.084Z,99.90
2023-02-04T02:50:45.221Z,99.90
2023-02-04T02:53:18.694Z,99.90
2023-02-04T02:55:46.296Z,99.90
2023-02-04T02:58:28.318Z,99.90
2023-02-04T03:00:56.238Z,99.90
2023-02-04T03:03:31.256Z,99.90
2023-02-04T03:06:11.197Z,99.90
2023-02-04T03:08:39.138Z,99.90
2023-02-04T03:11:06.123Z,99.90
2023-02-04T03:13:34.000Z,99.90
2023-02-04T03:16:01.277Z,99.90
2023-02-04T03:18:28.142Z,99.90
2023-02-04T03:20:55.190Z,99.90
2023-02-04T03:23:22.019Z,99.90
2023-02-04T03:25:48.810Z,99.90
2023-02-04T03:28:15.594Z,99.90
2023-02-04T03:30:42.378Z,99.90
2023-02-04T03:33:09.258Z,99.90
2023-02-04T03:35:35.953Z,99.90
2023-02-04T03:38:02.678Z,99.90
2023-02-04T03:40:30.111Z,99.90
2023-02-04T03:42:57.058Z,99.90
2023-02-04T03:45:23.801Z,99.90
2023-02-04T03:47:50.523Z,99.90
2023-02-04T03:50:17.310Z,99.90
2023-02-04T03:52:45.048Z,99.90
2023-02-04T03:55:11.864Z,99.90
2023-02-04T03:57:38.574Z,99.90
2023-02-04T04:00:05.767Z,99.90
2023-02-04T04:02:32.554Z,99.90
2023-02-04T04:04:59.285Z,99.90
2023-02-04T04:07:26.001Z,99.90
2023-02-04T04:09:52.715Z,99.90
2023-02-04T04:12:19.450Z,99.90
2023-02-04T04:14:46.164Z,99.90
2023-02-04T04:17:12.927Z,99.90
2023-02-04T04:19:39.628Z,99.90
2023-02-04T04:22:06.361Z,99.90
2023-02-04T04:24:33.532Z,99.90
2023-02-04T04:27:00.243Z,99.90
2023-02-04T04:29:26.969Z,99.90
2023-02-04T04:31:53.717Z,99.90
2023-02-04T04:34:20.555Z,99.90
2023-02-04T04:36:47.270Z,99.90
2023-02-04T04:39:14.093Z,99.90
2023-02-04T04:41:40.802Z,99.90
2023-02-04T04:44:07.679Z,99.90
2023-02-04T04:46:34.477Z,99.90
2023-02-04T04:49:01.282Z,99.90
2023-02-04T04:51:31.720Z,99.90
2023-02-04T04:53:59.768Z,99.90
2023-02-04T04:56:26.710Z,99.90
2023-02-04T04:58:53.561Z,99.90
2023-02-04T05:01:22.480Z,99.90
2023-02-04T05:03:49.255Z,99.90
2023-02-04T05:06:16.311Z,99.90
2023-02-04T05:08:43.085Z,99.90
2023-02-04T05:11:09.924Z,99.90
2023-02-04T05:13:36.659Z,99.90
2023-02-04T05:16:03.509Z,99.90
2023-02-04T05:18:30.236Z,99.90
2023-02-04T05:20:56.924Z,99.90
2023-02-04T05:23:23.665Z,99.90
2023-02-04T05:25:50.379Z,99.90
2023-02-04T05:28:17.234Z,99.90
2023-02-04T05:30:44.059Z,99.90
2023-02-04T05:33:10.784Z,99.90
2023-02-04T05:35:37.503Z,99.90
2023-02-04T05:38:04.390Z,99.90
2023-02-04T05:40:31.549Z,99.90
2023-02-04T05:42:58.564Z,99.90
2023-02-04T05:45:25.297Z,99.90
2023-02-04T05:47:52.884Z,99.90
2023-02-04T05:50:19.687Z,99.90
2023-02-04T05:52:46.526Z,99.90
2023-02-04T05:55:13.303Z,99.90
2023-02-04T05:57:40.005Z,99.90
2023-02-04T06:00:08.452Z,99.90
2023-02-04T06:02:35.187Z,99.90
2023-02-04T06:05:01.908Z,99.90
2023-02-04T06:07:28.612Z,99.90
2023-02-04T06:09:55.298Z,99.90
2023-02-04T06:12:22.061Z,99.90
2023-02-04T06:14:48.765Z,99.90
2023-02-04T06:17:15.474Z,99.90
2023-02-04T06:19:42.187Z,99.90
2023-02-04T06:22:08.955Z,99.90
2023-02-04T06:24:36.002Z,99.90
2023-02-04T06:27:02.710Z,99.90
2023-02-04T06:29:29.444Z,99.90
2023-02-04T06:31:56.296Z,99.90
2023-02-04T06:34:23.119Z,99.90
2023-02-04T06:36:49.842Z,99.90
2023-02-04T06:39:16.546Z,99.90
2023-02-04T06:41:43.287Z,99.90
2023-02-04T06:44:09.995Z,99.90
2023-02-04T06:46:36.772Z,99.90
2023-02-04T06:49:03.514Z,99.90
2023-02-04T06:51:30.363Z,99.90
2023-02-04T06:53:57.163Z,99.90
2023-02-04T06:56:23.929Z,99.90
2023-02-04T06:58:50.640Z,99.90
2023-02-04T07:01:17.403Z,99.90
2023-02-04T07:03:44.111Z,99.90
2023-02-04T07:06:10.837Z,99.90
2023-02-04T07:08:37.642Z,99.90
2023-02-04T07:11:04.338Z,99.90
2023-02-04T07:13:31.087Z,99.90
2023-02-04T07:15:57.902Z,99.90
2023-02-04T07:18:24.653Z,99.90
2023-02-04T07:20:51.450Z,99.90
2023-02-04T07:23:18.144Z,99.90
2023-02-04T07:25:44.965Z,99.90
2023-02-04T07:28:11.738Z,99.90
2023-02-04T07:30:38.620Z,99.90
2023-02-04T07:33:05.435Z,99.90
2023-02-04T07:35:32.175Z,99.90
2023-02-04T07:37:58.891Z,99.90
2023-02-04T07:40:25.644Z,99.90
2023-02-04T07:42:52.363Z,99.90
2023-02-04T07:45:19.078Z,99.90
2023-02-04T07:47:45.884Z,99.90
2023-02-04T07:50:12.942Z,99.90
2023-02-04T07:52:39.790Z,99.90
2023-02-04T07:55:07.430Z,99.90
2023-02-04T07:57:34.566Z,99.90
2023-02-04T08:00:01.378Z,99.90
2023-02-04T08:02:28.134Z,99.90
2023-02-04T08:04:54.908Z,99.90
2023-02-04T08:07:21.609Z,99.90
2023-02-04T08:09:48.334Z,99.90
2023-02-04T08:12:15.070Z,99.90
2023-02-04T08:14:41.776Z,99.90
2023-02-04T08:17:08.514Z,99.90
2023-02-04T08:19:35.231Z,99.90
2023-02-04T08:22:04.720Z,99.90
2023-02-04T08:24:31.419Z,99.90
2023-02-04T08:27:01.051Z,99.90
2023-02-04T08:29:27.788Z,99.90
2023-02-04T08:31:54.698Z,99.90
2023-02-04T08:34:21.527Z,99.90
2023-02-04T08:36:48.315Z,99.90
2023-02-04T08:39:15.029Z,99.90
2023-02-04T08:41:41.831Z,99.90
2023-02-04T08:44:08.580Z,99.90
2023-02-04T08:46:35.484Z,99.90
2023-02-04T08:49:02.312Z,99.90
2023-02-04T08:51:29.719Z,99.90
2023-02-04T08:53:56.412Z,99.90
2023-02-04T08:56:23.671Z,99.90
2023-02-04T08:58:52.764Z,99.90
2023-02-04T09:01:20.789Z,99.90
2023-02-04T09:03:47.843Z,99.90
2023-02-04T09:06:14.806Z,99.90
2023-02-04T09:08:42.070Z,99.90
2023-02-04T09:11:11.167Z,99.90
2023-02-04T09:13:39.248Z,99.90
2023-02-04T09:16:06.811Z,99.90
2023-02-04T09:18:33.700Z,99.90
2023-02-04T09:21:01.128Z,99.60
2023-02-04T09:23:28.008Z,98.90
2023-02-04T09:25:54.707Z,96.50
2023-02-04T09:28:21.533Z,96.90
2023-02-04T09:30:48.534Z,96.90
2023-02-04T09:33:16.876Z,95.50
2023-02-04T09:35:44.546Z,94.80
2023-02-04T09:38:11.320Z,93.40
2023-02-04T09:40:46.683Z,92.80
2023-02-04T09:43:22.168Z,92.70
2023-02-04T09:45:49.528Z,93.40
2023-02-04T09:48:17.184Z,93.50
2023-02-04T09:50:44.774Z,92.50
2023-02-04T09:53:19.280Z,92.90
2023-02-04T09:55:48.819Z,92.90
2023-02-04T09:58:22.148Z,92.80
2023-02-04T10:01:06.301Z,93.20
2023-02-04T10:03:35.291Z,92.80
2023-02-04T10:06:02.013Z,92.10
2023-02-04T10:08:33.178Z,92.10
2023-02-04T10:11:01.068Z,92.20
2023-02-04T10:13:36.478Z,90.70
2023-02-04T10:16:16.672Z,90.10
2023-02-04T10:18:44.834Z,87.50
2023-02-04T10:21:17.698Z,85.60
2023-02-04T10:23:53.676Z,85.20
2023-02-04T10:26:22.640Z,85.60
2023-02-04T10:28:49.710Z,84.50
2023-02-04T10:31:35.964Z,85.90
2023-02-04T10:34:11.799Z,88.20
2023-02-04T10:36:41.278Z,88.10
2023-02-04T10:39:18.080Z,86.80
2023-02-04T10:41:57.368Z,84.50
2023-02-04T10:44:40.278Z,82.60
2023-02-04T10:47:20.870Z,82.50
2023-02-04T10:49:58.735Z,82.30
2023-02-04T10:52:36.135Z,82.00
2023-02-04T10:55:06.389Z,81.70
2023-02-04T10:57:39.516Z,82.30
2023-02-04T11:00:20.187Z,82.60
2023-02-04T11:03:10.462Z,81.60
2023-02-04T11:05:38.391Z,82.70
2023-02-04T11:08:23.780Z,83.40
2023-02-04T11:10:56.763Z,83.40
2023-02-04T11:13:38.724Z,84.50
2023-02-04T11:16:13.264Z,84.40
2023-02-04T11:18:58.073Z,84.00
2023-02-04T11:21:33.425Z,84.50
2023-02-04T11:24:13.755Z,83.70
2023-02-04T11:27:07.189Z,82.50
2023-02-04T11:29:42.718Z,80.90
2023-02-04T11:32:33.520Z,81.40
2023-02-04T11:35:28.722Z,81.40
2023-02-04T11:37:56.856Z,81.80
2023-02-04T11:40:38.309Z,81.30
2023-02-04T11:43:16.293Z,81.20
2023-02-04T11:45:43.999Z,80.40
2023-02-04T11:48:19.411Z,79.20
2023-02-04T11:51:03.694Z,79.00
2023-02-04T11:53:34.775Z,79.00
2023-02-04T11:56:01.797Z,79.50
2023-02-04T11:58:31.359Z,80.00
2023-02-04T12:00:59.193Z,81.20
2023-02-04T12:03:36.410Z,80.10
2023-02-04T12:06:03.791Z,79.00
2023-02-04T12:08:37.133Z,78.90
2023-02-04T12:11:12.298Z,76.50
2023-02-04T12:13:54.303Z,75.40
2023-02-04T12:16:21.189Z,75.80
2023-02-04T12:18:48.820Z,77.50
2023-02-04T12:21:16.282Z,76.80
2023-02-04T12:23:43.139Z,76.80
2023-02-04T12:26:10.721Z,77.70
2023-02-04T12:28:37.614Z,77.20
2023-02-04T12:31:04.714Z,76.80
2023-02-04T12:33:31.476Z,76.00
2023-02-04T12:35:58.184Z,75.70
2023-02-04T12:38:24.953Z,75.90
2023-02-04T12:40:51.671Z,76.90
2023-02-04T12:43:18.414Z,75.40
2023-02-04T12:45:46.334Z,74.30
2023-02-04T12:48:13.926Z,76.30
2023-02-04T12:50:41.278Z,77.70
2023-02-04T12:53:08.059Z,78.20
2023-02-04T12:55:35.079Z,77.80
2023-02-04T12:58:01.971Z,78.10
2023-02-04T13:00:28.782Z,76.70
2023-02-04T13:02:55.811Z,74.30
2023-02-04T13:05:22.617Z,76.50
2023-02-04T13:07:49.374Z,74.80
2023-02-04T13:10:16.819Z,67.50
2023-02-04T13:12:43.942Z,66.00
2023-02-04T13:15:11.159Z,64.50
2023-02-04T13:17:38.308Z,59.30
2023-02-04T13:20:06.010Z,57.70
2023-02-04T13:22:33.017Z,57.00
2023-02-04T13:24:59.865Z,56.20
2023-02-04T13:27:27.810Z,55.40
2023-02-04T13:29:54.586Z,56.80
2023-02-04T13:32:21.316Z,58.80
2023-02-04T13:34:48.068Z,58.70
2023-02-04T13:37:14.760Z,59.50
2023-02-04T13:39:41.526Z,59.10
2023-02-04T13:42:08.239Z,59.30
2023-02-04T13:44:34.949Z,59.50
2023-02-04T13:47:01.681Z,58.10
2023-02-04T13:49:28.376Z,59.10
2023-02-04T13:51:55.072Z,57.60
2023-02-04T13:54:21.807Z,57.40
2023-02-04T13:56:48.527Z,57.20
2023-02-04T13:59:15.322Z,57.80
2023-02-04T14:01:42.150Z,58.30
2023-02-04T14:04:08.844Z,57.20
2023-02-04T14:06:38.162Z,54.60
2023-02-04T14:09:05.148Z,50.40
2023-02-04T14:11:31.869Z,45.80
2023-02-04T14:13:58.622Z,39.80
2023-02-04T14:16:25.453Z,32.60
2023-02-04T14:18:52.353Z,32.10
2023-02-04T14:21:19.328Z,34.70
2023-02-04T14:23:46.116Z,38.20
2023-02-04T14:26:12.863Z,41.20
2023-02-04T14:28:39.555Z,44.20
2023-02-04T14:31:06.357Z,47.00
2023-02-04T14:33:33.237Z,49.60
2023-02-04T14:36:00.501Z,50.20
2023-02-04T14:38:30.832Z,52.00
2023-02-04T14:41:00.760Z,52.80
2023-02-04T14:43:27.892Z,53.80
2023-02-04T14:45:54.786Z,55.10
2023-02-04T14:48:21.557Z,56.30
2023-02-04T14:50:48.360Z,57.10
2023-02-04T14:53:15.141Z,57.70
2023-02-04T14:55:41.867Z,58.10
2023-02-04T14:58:08.679Z,58.50
2023-02-04T15:00:35.656Z,59.10
2023-02-04T15:03:02.471Z,59.70
2023-02-04T15:05:29.281Z,60.60
2023-02-04T15:07:56.040Z,62.10
2023-02-04T15:10:24.462Z,62.50
2023-02-04T15:12:51.859Z,62.30
2023-02-04T15:15:18.789Z,61.80
2023-02-04T15:17:45.526Z,62.30
2023-02-04T15:20:12.556Z,63.00
2023-02-04T15:22:39.553Z,63.20
2023-02-04T15:25:06.622Z,63.70
2023-02-04T15:27:33.367Z,63.70
2023-02-04T15:30:00.131Z,64.00
2023-02-04T15:32:27.063Z,64.30
2023-02-04T15:34:53.808Z,64.40
2023-02-04T15:37:20.544Z,64.40
2023-02-04T15:39:47.249Z,64.40
2023-02-04T15:42:14.717Z,64.50
2023-02-04T15:44:41.467Z,64.60
2023-02-04T15:47:08.223Z,64.20
2023-02-04T15:49:35.112Z,63.80
2023-02-04T15:52:02.417Z,63.50
2023-02-04T15:54:29.524Z,63.60
2023-02-04T15:56:56.231Z,64.50
2023-02-04T15:59:23.229Z,65.20
2023-02-04T16:01:50.686Z,66.00
2023-02-04T16:04:19.781Z,66.70
2023-02-04T16:06:57.116Z,67.70
2023-02-04T16:09:26.172Z,68.70
2023-02-04T16:11:52.923Z,69.30
2023-02-04T16:14:19.629Z,70.00
2023-02-04T16:16:46.349Z,70.60
2023-02-04T16:19:13.091Z,71.10
2023-02-04T16:21:39.920Z,71.80
2023-02-04T16:24:08.124Z,73.30
2023-02-04T16:26:34.915Z,73.50
2023-02-04T16:29:01.632Z,74.10
2023-02-04T16:31:28.482Z,75.10
2023-02-04T16:33:55.253Z,75.60
2023-02-04T16:36:22.375Z,76.50
2023-02-04T16:38:49.155Z,77.50
2023-02-04T16:41:15.932Z,78.50
2023-02-04T16:43:42.685Z,79.60
2023-02-04T16:46:09.534Z,80.80
2023-02-04T16:48:36.401Z,82.00
2023-02-04T16:51:03.730Z,84.20
2023-02-04T16:53:30.492Z,86.20
2023-02-04T16:55:57.218Z,88.30
2023-02-04T16:58:23.993Z,89.60
2023-02-04T17:00:50.786Z,90.40
2023-02-04T17:03:17.664Z,90.90
2023-02-04T17:05:44.531Z,91.20
2023-02-04T17:08:13.477Z,91.80
2023-02-04T17:10:59.902Z,92.50
2023-02-04T17:13:26.905Z,93.10
2023-02-04T17:16:00.262Z,94.00
2023-02-04T17:18:29.979Z,95.20
2023-02-04T17:20:57.970Z,95.70
2023-02-04T17:23:26.691Z,95.80
2023-02-04T17:25:53.614Z,95.90
2023-02-04T17:28:20.454Z,96.20
2023-02-04T17:30:47.324Z,96.90
2023-02-04T17:33:14.042Z,97.50
2023-02-04T17:35:40.756Z,97.60
2023-02-04T17:38:07.510Z,97.70
2023-02-04T17:40:34.348Z,97.90
2023-02-04T17:43:01.107Z,98.10
2023-02-04T17:45:27.832Z,98.20
2023-02-04T17:47:54.543Z,98.80
2023-02-04T17:50:21.323Z,99.00
2023-02-04T17:52:48.252Z,99.70
2023-02-04T17:55:29.105Z,99.90
2023-02-04T17:58:00.502Z,99.90
2023-02-04T18:00:30.800Z,99.90
2023-02-04T18:02:57.822Z,99.90
2023-02-04T18:05:30.759Z,99.90
2023-02-04T18:08:27.564Z,99.90
2023-02-04T18:10:55.551Z,99.90
2023-02-04T18:13:31.860Z,99.90
2023-02-04T18:16:15.202Z,99.90
2023-02-04T18:18:42.137Z,99.90
2023-02-04T18:21:33.538Z,99.90
2023-02-04T18:24:09.401Z,99.90
2023-02-04T18:26:44.785Z,99.90
2023-02-04T18:29:30.204Z,99.90
2023-02-04T18:32:03.833Z,99.90
2023-02-04T18:34:40.469Z,99.90
2023-02-04T18:37:29.916Z,99.90
2023-02-04T18:40:08.589Z,99.90
2023-02-04T18:42:40.008Z,99.90
2023-02-04T18:45:29.977Z,99.90
2023-02-04T18:48:00.941Z,99.90
2023-02-04T18:50:35.078Z,99.90
2023-02-04T18:53:23.510Z,99.90
2023-02-04T18:55:57.846Z,99.90
2023-02-04T18:58:35.836Z,99.90
2023-02-04T19:01:07.917Z,99.90
2023-02-04T19:03:45.357Z,99.90
2023-02-04T19:06:38.417Z,99.90
2023-02-04T19:09:14.542Z,99.90
2023-02-04T19:11:51.828Z,99.90
2023-02-04T19:14:26.516Z,99.90
2023-02-04T19:16:59.531Z,99.90
2023-02-04T19:19:40.125Z,99.90
2023-02-04T19:22:46.503Z,99.90
2023-02-04T19:25:22.247Z,99.90
2023-02-04T19:27:56.907Z,99.90
2023-02-04T19:30:39.949Z,99.90
2023-02-04T19:33:42.739Z,99.90
2023-02-04T19:36:24.340Z,99.90
2023-02-04T19:39:00.814Z,99.90
2023-02-04T19:41:47.919Z,99.90
2023-02-04T19:44:15.054Z,99.90
2023-02-04T19:46:42.593Z,99.90
2023-02-04T19:49:29.791Z,99.90
2023-02-04T19:51:59.066Z,99.90
2023-02-04T19:54:37.785Z,99.90
2023-02-04T19:57:24.379Z,99.90
2023-02-04T19:59:55.965Z,99.90
2023-02-04T20:02:39.232Z,99.90
2023-02-04T20:05:20.354Z,99.90
2023-02-04T20:07:47.098Z,99.90
2023-02-04T20:10:26.794Z,99.90
2023-02-04T20:13:05.641Z,99.90
2023-02-04T20:15:32.803Z,99.90
2023-02-04T20:17:59.855Z,99.90
2023-02-04T20:20:31.376Z,99.90
2023-02-04T20:23:33.037Z,99.90
2023-02-04T20:26:01.444Z,99.90
2023-02-04T20:28:44.661Z,99.90
2023-02-04T20:31:24.586Z,99.90
2023-02-04T20:33:59.367Z,99.90
2023-02-04T20:36:26.155Z,99.90
2023-02-04T20:39:42.532Z,99.90
2023-02-04T20:42:19.299Z,99.90
2023-02-04T20:44:46.943Z,99.90
2023-02-04T20:47:25.708Z,99.90
2023-02-04T20:49:59.348Z,99.90
2023-02-04T20:52:41.246Z,99.90
2023-02-04T20:55:23.063Z,99.90
2023-02-04T20:57:52.590Z,99.90
2023-02-04T21:00:38.515Z,99.90
2023-02-04T21:03:24.764Z,99.90
2023-02-04T21:05:53.613Z,99.90
2023-02-04T21:08:47.832Z,99.90
2023-02-04T21:11:14.596Z,99.90
2023-02-04T21:13:41.386Z,99.90
2023-02-04T21:16:08.802Z,99.90
2023-02-04T21:18:35.922Z,99.90
2023-02-04T21:21:07.113Z,99.90
2023-02-04T21:23:35.937Z,99.90
2023-02-04T21:26:02.899Z,99.90
2023-02-04T21:28:30.428Z,99.90
2023-02-04T21:30:57.352Z,99.90
2023-02-04T21:33:24.246Z,99.90
2023-02-04T21:35:51.091Z,99.90
2023-02-04T21:38:17.842Z,99.90
2023-02-04T21:40:44.610Z,99.90
2023-02-04T21:43:11.462Z,99.90
2023-02-04T21:45:39.566Z,99.90
2023-02-04T21:48:07.785Z,99.90
2023-02-04T21:50:36.354Z,99.90
2023-02-04T21:53:03.114Z,99.90
2023-02-04T21:55:30.041Z,99.90
2023-02-04T21:57:56.794Z,99.90
2023-02-04T22:00:23.969Z,99.90
2023-02-04T22:02:52.662Z,99.90
2023-02-04T22:05:21.452Z,99.90
2023-02-04T22:07:48.866Z,99.90
2023-02-04T22:10:22.865Z,99.90
2023-02-04T22:12:49.944Z,99.90
2023-02-04T22:15:24.211Z,99.90
2023-02-04T22:17:53.300Z,99.90
2023-02-04T22:20:22.443Z,99.90
2023-02-04T22:22:49.972Z,99.90
2023-02-04T22:25:19.885Z,99.90
2023-02-04T22:27:46.717Z,99.90
2023-02-04T22:30:15.618Z,99.90
2023-02-04T22:32:42.374Z,99.90
2023-02-04T22:35:10.732Z,99.90
2023-02-04T22:37:39.574Z,99.90
2023-02-04T22:40:10.058Z,99.90
2023-02-04T22:42:37.195Z,99.90
2023-02-04T22:45:04.938Z,99.90
2023-02-04T22:47:32.184Z,99.90
2023-02-04T22:49:58.931Z,99.90
2023-02-04T22:52:25.924Z,99.90
2023-02-04T22:54:52.825Z,99.90
2023-02-04T22:57:19.548Z,99.90
2023-02-04T22:59:46.255Z,99.90
2023-02-04T23:02:13.111Z,99.90
2023-02-04T23:04:39.884Z,99.90
2023-02-04T23:07:08.295Z,99.90
2023-02-04T23:09:35.531Z,99.90
2023-02-04T23:12:12.521Z,99.90
2023-02-04T23:14:45.890Z,99.90
2023-02-04T23:17:14.466Z,99.90
2023-02-04T23:19:41.313Z,99.90
2023-02-04T23:22:10.361Z,99.90
2023-02-04T23:24:37.819Z,99.90
2023-02-04T23:27:05.569Z,99.90
2023-02-04T23:29:35.111Z,99.90
2023-02-04T23:32:03.345Z,99.90
2023-02-04T23:34:31.291Z,99.90
2023-02-04T23:36:58.114Z,99.90
2023-02-04T23:39:25.162Z,99.90
2023-02-04T23:41:52.244Z,99.90
2023-02-04T23:44:19.106Z,99.90
2023-02-04T23:46:46.101Z,99.90
2023-02-04T23:49:12.915Z,99.90
2023-02-04T23:51:39.969Z,99.90
2023-02-04T23:54:07.235Z,99.90
2023-02-04T23:56:34.208Z,99.90
2023-02-04T23:59:01.320Z,99.90
